Time;durP1;ratioP1;P1;durP2;ratioP2;P2;SDS_P1;SDS_P2;PMS_P1;PMS_P2;Temp;Humidity;BMP_temperature;BMP_pressure;BME280_temperature;BME280_humidity;BME280_pressure;Samples;Min_cycle;Max_cycle;Signal;HPM_P1;HPM_P2
2021/04/17 00:04:21;;;;;;;10.67;6.07;;;;;;;;;;10286348;28;20204;-69
2021/04/17 00:09:24;;;;;;;12.07;6.80;;;;;;;;;;10272832;28;20719;-66
2021/04/17 00:14:28;;;;;;;10.80;6.00;;;;;;;;;;10284381;28;20339;-68
2021/04/17 00:19:47;;;;;;;13.17;6.37;;;;;;;;;;10274671;28;20216;-67
2021/04/17 00:24:50;;;;;;;13.13;6.90;;;;;;;;;;10280042;28;20660;-67
2021/04/17 00:29:51;;;;;;;13.60;7.10;;;;;;;;;;10280297;28;20858;-67
2021/04/17 00:34:53;;;;;;;13.03;7.33;;;;;;;;;;10276629;28;20192;-67
2021/04/17 00:39:55;;;;;;;12.73;6.57;;;;;;;;;;10285336;28;20290;-67
2021/04/17 00:44:57;;;;;;;13.27;7.20;;;;;;;;;;10287732;28;20279;-67
2021/04/17 00:49:58;;;;;;;12.40;6.37;;;;;;;;;;10282738;28;20246;-67
2021/04/17 00:55:01;;;;;;;12.87;7.33;;;;;;;;;;10274738;28;22499;-70
2021/04/17 01:00:04;;;;;;;12.67;6.87;;;;;;;;;;10280465;28;20212;-67
2021/04/17 01:05:07;;;;;;;14.20;7.30;;;;;;;;;;10277395;28;20282;-67
2021/04/17 01:10:14;;;;;;;13.13;7.13;;;;;;;;;;10275854;28;20224;-68
2021/04/17 01:15:17;;;;;;;12.80;6.60;;;;;;;;;;10275666;28;20235;-66
2021/04/17 01:20:20;;;;;;;12.67;6.87;;;;;;;;;;10280274;28;20249;-69
2021/04/17 01:25:24;;;;;;;13.30;7.57;;;;;;;;;;10284127;28;20208;-67
2021/04/17 01:30:26;;;;;;;13.20;7.40;;;;;;;;;;10273092;28;20406;-67
2021/04/17 01:35:28;;;;;;;13.47;7.13;;;;;;;;;;10285840;28;20200;-67
2021/04/17 01:40:31;;;;;;;14.40;7.80;;;;;;;;;;10281567;28;20667;-68
2021/04/17 01:45:33;;;;;;;13.77;7.50;;;;;;;;;;10280698;28;20235;-67
2021/04/17 01:50:35;;;;;;;15.97;7.80;;;;;;;;;;10270348;28;20259;-67
2021/04/17 01:55:38;;;;;;;15.20;7.83;;;;;;;;;;10281772;28;20227;-67
2021/04/17 02:00:41;;;;;;;14.50;8.20;;;;;;;;;;10280329;28;20880;-66
2021/04/17 02:05:42;;;;;;;16.53;8.80;;;;;;;;;;10283581;28;20323;-66
2021/04/17 02:10:44;;;;;;;15.60;8.17;;;;;;;;;;10276742;28;20294;-67
2021/04/17 02:15:48;;;;;;;15.83;8.50;;;;;;;;;;10277597;28;20295;-66
2021/04/17 02:20:52;;;;;;;16.17;8.67;;;;;;;;;;10276552;28;20242;-66
2021/04/17 02:25:54;;;;;;;15.60;8.33;;;;;;;;;;10281818;28;20195;-66
2021/04/17 02:30:57;;;;;;;16.87;8.93;;;;;;;;;;10278767;28;20255;-67
2021/04/17 02:35:59;;;;;;;18.60;9.10;;;;;;;;;;10281109;28;20204;-66
2021/04/17 02:41:01;;;;;;;16.30;8.70;;;;;;;;;;10279634;28;20215;-67
2021/04/17 02:46:04;;;;;;;17.70;9.17;;;;;;;;;;10280953;28;20286;-68
2021/04/17 02:51:06;;;;;;;17.63;9.23;;;;;;;;;;10282694;28;20280;-68
2021/04/17 02:56:07;;;;;;;18.60;9.20;;;;;;;;;;10276840;28;20200;-67
2021/04/17 03:01:10;;;;;;;15.70;8.67;;;;;;;;;;10280232;28;20211;-67
2021/04/17 03:06:12;;;;;;;16.33;8.67;;;;;;;;;;10278861;28;20599;-67
2021/04/17 03:11:13;;;;;;;15.57;9.07;;;;;;;;;;10274238;28;20299;-67
2021/04/17 03:16:16;;;;;;;17.73;9.37;;;;;;;;;;10281065;28;20570;-68
2021/04/17 03:21:18;;;;;;;20.07;9.87;;;;;;;;;;10279621;28;20260;-67
2021/04/17 03:26:19;;;;;;;17.83;9.47;;;;;;;;;;10282097;28;20212;-67
2021/04/17 03:31:22;;;;;;;16.77;9.30;;;;;;;;;;10275179;28;20228;-68
2021/04/17 03:36:23;;;;;;;17.57;9.50;;;;;;;;;;10278967;28;20220;-68
2021/04/17 03:41:25;;;;;;;17.73;9.43;;;;;;;;;;10281455;28;20218;-68
2021/04/17 03:46:27;;;;;;;18.53;9.97;;;;;;;;;;10287488;28;20303;-68
2021/04/17 03:51:29;;;;;;;19.00;10.30;;;;;;;;;;10284786;28;20227;-68
2021/04/17 03:56:31;;;;;;;19.20;10.40;;;;;;;;;;10282946;28;20275;-69
2021/04/17 04:01:33;;;;;;;18.80;9.90;;;;;;;;;;10284037;28;20627;-67
2021/04/17 04:06:35;;;;;;;20.63;10.00;;;;;;;;;;10276607;28;20220;-67
2021/04/17 04:11:37;;;;;;;19.50;9.93;;;;;;;;;;10253920;28;20712;-68
2021/04/17 04:16:39;;;;;;;19.23;10.53;;;;;;;;;;10279591;28;20203;-67
2021/04/17 04:21:41;;;;;;;18.20;9.93;;;;;;;;;;10285406;28;20291;-66
2021/04/17 04:26:43;;;;;;;20.60;10.13;;;;;;;;;;10286980;28;20204;-66
2021/04/17 04:31:45;;;;;;;20.50;10.70;;;;;;;;;;10284857;28;20223;-69
2021/04/17 04:36:47;;;;;;;20.87;10.53;;;;;;;;;;10253473;28;20261;-67
2021/04/17 04:41:49;;;;;;;20.47;11.03;;;;;;;;;;10258496;28;20223;-67
2021/04/17 04:46:51;;;;;;;21.00;11.07;;;;;;;;;;10254884;28;20219;-68
2021/04/17 04:51:53;;;;;;;20.77;10.37;;;;;;;;;;10252902;28;20227;-67
2021/04/17 04:56:55;;;;;;;22.83;12.00;;;;;;;;;;10249364;28;22527;-66
2021/04/17 05:01:57;;;;;;;20.23;10.60;;;;;;;;;;10267706;28;20584;-68
2021/04/17 05:06:59;;;;;;;22.30;11.70;;;;;;;;;;10280869;28;20303;-66
2021/04/17 05:12:00;;;;;;;23.00;12.20;;;;;;;;;;10269394;28;20374;-66
2021/04/17 05:17:03;;;;;;;22.07;11.43;;;;;;;;;;10281099;28;20695;-67
2021/04/17 05:22:04;;;;;;;21.27;10.70;;;;;;;;;;10283796;28;20215;-67
2021/04/17 05:27:06;;;;;;;21.70;11.57;;;;;;;;;;10277330;28;20568;-67
2021/04/17 05:32:09;;;;;;;20.27;10.90;;;;;;;;;;10285332;28;20247;-67
2021/04/17 05:37:10;;;;;;;18.43;10.70;;;;;;;;;;10281730;28;20294;-68
2021/04/17 05:42:12;;;;;;;18.50;10.13;;;;;;;;;;10272908;28;20231;-68
2021/04/17 05:47:14;;;;;;;19.60;11.23;;;;;;;;;;10279627;28;20220;-68
2021/04/17 05:52:16;;;;;;;19.63;11.50;;;;;;;;;;10272304;28;20223;-67
2021/04/17 05:57:18;;;;;;;19.10;11.07;;;;;;;;;;10279766;28;20199;-68
2021/04/17 06:02:21;;;;;;;19.97;10.83;;;;;;;;;;10277754;28;20220;-68
2021/04/17 06:07:23;;;;;;;20.70;11.00;;;;;;;;;;10291744;28;20524;-69
2021/04/17 06:12:28;;;;;;;19.67;11.50;;;;;;;;;;10283016;28;20299;-67
2021/04/17 06:17:30;;;;;;;19.17;11.20;;;;;;;;;;10277096;28;20207;-68
2021/04/17 06:22:32;;;;;;;18.60;11.23;;;;;;;;;;10278247;28;20633;-68
2021/04/17 06:27:34;;;;;;;20.17;11.40;;;;;;;;;;10271733;28;20216;-68
2021/04/17 06:32:36;;;;;;;20.30;11.47;;;;;;;;;;10270579;28;20231;-69
2021/04/17 06:37:38;;;;;;;18.67;11.17;;;;;;;;;;10258394;28;20564;-69
2021/04/17 06:42:41;;;;;;;19.13;11.20;;;;;;;;;;10272034;28;20704;-69
2021/04/17 06:47:43;;;;;;;20.23;11.77;;;;;;;;;;10268782;28;20212;-68
2021/04/17 06:52:45;;;;;;;19.80;11.67;;;;;;;;;;10268289;28;20755;-68
2021/04/17 06:57:47;;;;;;;20.10;12.13;;;;;;;;;;10266097;28;20195;-68
2021/04/17 07:02:50;;;;;;;18.07;11.40;;;;;;;;;;10258362;28;20199;-69
2021/04/17 07:07:51;;;;;;;17.97;11.20;;;;;;;;;;10251161;28;20675;-70
2021/04/17 07:13:05;;;;;;;18.97;11.17;;;;;;;;;;10269425;28;20200;-67
2021/04/17 07:18:21;;;;;;;20.93;12.10;;;;;;;;;;10269481;28;20275;-67
2021/04/17 07:23:47;;;;;;;20.20;11.77;;;;;;;;;;10270266;28;20239;-68
2021/04/17 07:29:05;;;;;;;19.77;11.13;;;;;;;;;;10239678;28;20293;-68
2021/04/17 07:34:14;;;;;;;18.53;10.67;;;;;;;;;;10272728;28;20204;-67
2021/04/17 07:39:29;;;;;;;19.00;10.93;;;;;;;;;;10257323;28;20954;-66
2021/04/17 07:44:33;;;;;;;16.20;9.83;;;;;;;;;;10256412;28;20218;-71
2021/04/17 07:49:37;;;;;;;15.83;9.30;;;;;;;;;;10279076;28;20667;-68
2021/04/17 07:54:40;;;;;;;14.40;9.17;;;;;;;;;;10275631;28;20204;-65
2021/04/17 07:59:43;;;;;;;13.20;8.37;;;;;;;;;;10260678;28;20845;-68
2021/04/17 08:04:46;;;;;;;14.40;8.20;;;;;;;;;;10273524;28;20714;-68
2021/04/17 08:09:48;;;;;;;14.90;8.93;;;;;;;;;;10274762;28;20223;-67
2021/04/17 08:14:51;;;;;;;14.97;9.33;;;;;;;;;;10268685;28;20196;-68
2021/04/17 08:19:56;;;;;;;14.37;8.97;;;;;;;;;;10278283;28;20298;-67
2021/04/17 08:24:59;;;;;;;12.70;7.67;;;;;;;;;;10288179;28;20257;-68
2021/04/17 08:30:05;;;;;;;12.50;7.33;;;;;;;;;;10289805;28;20283;-66
2021/04/17 08:35:09;;;;;;;9.40;5.40;;;;;;;;;;10291670;28;20191;-68
2021/04/17 08:40:11;;;;;;;10.80;5.40;;;;;;;;;;10296783;28;20216;-68
2021/04/17 08:45:15;;;;;;;10.07;5.13;;;;;;;;;;10300943;28;20576;-67
2021/04/17 08:50:25;;;;;;;10.00;5.27;;;;;;;;;;10277242;28;20310;-68
2021/04/17 08:55:27;;;;;;;11.17;6.47;;;;;;;;;;10286919;28;21345;-68
2021/04/17 09:00:29;;;;;;;10.37;6.17;;;;;;;;;;10277284;28;20215;-69
2021/04/17 09:05:44;;;;;;;10.83;6.53;;;;;;;;;;10264648;28;20281;-68
2021/04/17 09:10:46;;;;;;;11.50;6.50;;;;;;;;;;10271889;28;20634;-70
2021/04/17 09:15:52;;;;;;;12.20;7.00;;;;;;;;;;10278874;28;20204;-69
2021/04/17 09:20:56;;;;;;;11.70;7.10;;;;;;;;;;10272587;28;20306;-69
2021/04/17 09:25:58;;;;;;;11.83;6.37;;;;;;;;;;10289723;28;20195;-69
2021/04/17 09:31:00;;;;;;;11.00;6.53;;;;;;;;;;10288919;28;20223;-68
2021/04/17 09:36:02;;;;;;;11.87;7.03;;;;;;;;;;10288080;28;20191;-68
2021/04/17 09:41:04;;;;;;;12.57;6.73;;;;;;;;;;10268229;28;20219;-68
2021/04/17 09:46:07;;;;;;;9.70;5.27;;;;;;;;;;10278606;28;20687;-69
2021/04/17 09:51:17;;;;;;;12.93;6.00;;;;;;;;;;10280642;28;20227;-69
2021/04/17 09:56:26;;;;;;;10.83;5.57;;;;;;;;;;10270698;28;20589;-68
2021/04/17 10:01:31;;;;;;;9.70;5.10;;;;;;;;;;10269282;28;20236;-69
2021/04/17 10:06:33;;;;;;;10.40;6.70;;;;;;;;;;10265845;28;20248;-68
2021/04/17 10:11:36;;;;;;;8.73;5.20;;;;;;;;;;10267433;28;20237;-70
2021/04/17 10:16:40;;;;;;;10.67;6.67;;;;;;;;;;10262702;28;20202;-70
2021/04/17 10:21:45;;;;;;;10.00;6.00;;;;;;;;;;10260449;28;20307;-70
2021/04/17 10:26:48;;;;;;;10.67;5.80;;;;;;;;;;10262597;28;20218;-71
2021/04/17 10:31:59;;;;;;;11.37;6.33;;;;;;;;;;10254888;28;20357;-70
2021/04/17 10:37:02;;;;;;;9.73;5.87;;;;;;;;;;10259126;28;20191;-69
2021/04/17 10:42:06;;;;;;;9.67;5.63;;;;;;;;;;10248519;28;20582;-69
2021/04/17 10:47:10;;;;;;;9.90;5.67;;;;;;;;;;10256150;28;20219;-69
2021/04/17 10:52:25;;;;;;;9.90;5.50;;;;;;;;;;10250809;28;20459;-69
2021/04/17 10:57:27;;;;;;;8.80;5.90;;;;;;;;;;10265031;28;20200;-70
2021/04/17 11:02:30;;;;;;;9.40;5.53;;;;;;;;;;10263438;28;20299;-68
2021/04/17 11:07:33;;;;;;;9.73;5.97;;;;;;;;;;10268220;28;20243;-71
2021/04/17 11:12:36;;;;;;;10.33;5.33;;;;;;;;;;10273923;28;20282;-71
2021/04/17 11:17:39;;;;;;;10.40;5.83;;;;;;;;;;10279492;28;20192;-68
2021/04/17 11:22:40;;;;;;;9.17;5.40;;;;;;;;;;10269085;28;20379;-70
2021/04/17 11:27:42;;;;;;;9.17;4.90;;;;;;;;;;10277939;28;20212;-70
2021/04/17 11:32:44;;;;;;;10.10;5.50;;;;;;;;;;10284847;28;20243;-69
2021/04/17 11:37:47;;;;;;;9.27;5.20;;;;;;;;;;10281371;28;20291;-72
2021/04/17 11:42:48;;;;;;;10.50;5.90;;;;;;;;;;10287345;28;20207;-69
2021/04/17 11:47:51;;;;;;;10.63;5.73;;;;;;;;;;10280656;28;20299;-68
2021/04/17 11:52:53;;;;;;;11.23;6.20;;;;;;;;;;10281686;28;20707;-68
2021/04/17 11:57:54;;;;;;;10.33;5.83;;;;;;;;;;10280829;28;20247;-67
2021/04/17 12:02:58;;;;;;;11.00;6.40;;;;;;;;;;10278658;28;20616;-69
2021/04/17 12:08:00;;;;;;;11.43;6.77;;;;;;;;;;10277321;28;20816;-69
2021/04/17 12:13:01;;;;;;;10.13;6.57;;;;;;;;;;10280528;28;20196;-70
2021/04/17 12:18:04;;;;;;;11.20;7.03;;;;;;;;;;10270311;28;20222;-70
2021/04/17 12:23:06;;;;;;;14.17;7.80;;;;;;;;;;10272596;28;20240;-69
2021/04/17 12:28:07;;;;;;;11.93;7.47;;;;;;;;;;10270572;28;20234;-70
2021/04/17 12:33:11;;;;;;;11.90;7.00;;;;;;;;;;10272334;28;20215;-70
2021/04/17 12:38:12;;;;;;;12.93;8.60;;;;;;;;;;10264606;28;20370;-68
2021/04/17 12:43:14;;;;;;;11.60;7.10;;;;;;;;;;10272654;28;20330;-68
2021/04/17 12:48:17;;;;;;;11.83;6.80;;;;;;;;;;10270123;28;20227;-69
2021/04/17 12:53:24;;;;;;;10.53;5.47;;;;;;;;;;10280740;28;20286;-68
2021/04/17 12:58:26;;;;;;;10.03;6.20;;;;;;;;;;10269264;28;20219;-68
2021/04/17 13:03:28;;;;;;;10.80;6.07;;;;;;;;;;10254800;28;20845;-71
2021/04/17 13:08:30;;;;;;;10.93;6.43;;;;;;;;;;10259015;28;20512;-68
2021/04/17 13:13:32;;;;;;;12.00;6.77;;;;;;;;;;10285769;28;20241;-68
2021/04/17 13:18:36;;;;;;;10.60;6.43;;;;;;;;;;10274397;28;20723;-68
2021/04/17 13:23:38;;;;;;;14.23;7.27;;;;;;;;;;10284315;28;20204;-71
2021/04/17 13:28:40;;;;;;;12.63;7.77;;;;;;;;;;10267235;28;20224;-68
2021/04/17 13:33:43;;;;;;;10.73;7.17;;;;;;;;;;10273062;28;20703;-70
2021/04/17 13:38:45;;;;;;;11.73;7.53;;;;;;;;;;10265142;28;20304;-69
2021/04/17 13:43:46;;;;;;;11.43;7.23;;;;;;;;;;10268131;28;20286;-69
2021/04/17 13:48:49;;;;;;;12.07;8.00;;;;;;;;;;10268040;28;20230;-69
2021/04/17 13:53:50;;;;;;;11.47;7.30;;;;;;;;;;10265554;28;20203;-70
2021/04/17 13:58:52;;;;;;;11.67;8.00;;;;;;;;;;10270581;28;20219;-67
2021/04/17 14:03:54;;;;;;;11.13;7.50;;;;;;;;;;10266678;28;20543;-70
2021/04/17 14:08:56;;;;;;;12.90;8.47;;;;;;;;;;10270292;28;20306;-68
2021/04/17 14:13:58;;;;;;;12.80;8.33;;;;;;;;;;10267899;28;20204;-69
2021/04/17 14:19:00;;;;;;;11.43;7.67;;;;;;;;;;10272818;28;20256;-69
2021/04/17 14:24:02;;;;;;;12.67;8.20;;;;;;;;;;10272260;28;20294;-68
2021/04/17 14:29:04;;;;;;;12.57;7.97;;;;;;;;;;10279092;28;20223;-70
2021/04/17 14:34:06;;;;;;;11.67;7.63;;;;;;;;;;10272975;28;20587;-69
2021/04/17 14:39:08;;;;;;;11.07;7.50;;;;;;;;;;10284044;28;20216;-68
2021/04/17 14:44:11;;;;;;;13.20;8.50;;;;;;;;;;10277715;28;20203;-70
2021/04/17 14:49:15;;;;;;;12.13;8.43;;;;;;;;;;10298472;28;20319;-70
2021/04/17 14:54:16;;;;;;;12.60;8.03;;;;;;;;;;10279779;28;20655;-68
2021/04/17 14:59:33;;;;;;;12.73;7.77;;;;;;;;;;10272565;28;20298;-69
2021/04/17 15:04:36;;;;;;;11.07;7.60;;;;;;;;;;10279679;28;20208;-69
2021/04/17 15:09:37;;;;;;;11.30;7.90;;;;;;;;;;10273136;28;20301;-69
2021/04/17 15:14:39;;;;;;;15.90;9.40;;;;;;;;;;10271727;28;20191;-69
2021/04/17 15:19:42;;;;;;;12.40;8.90;;;;;;;;;;10271484;28;20943;-67
2021/04/17 15:24:43;;;;;;;13.13;8.43;;;;;;;;;;10278502;28;20196;-68
2021/04/17 15:29:45;;;;;;;12.67;8.73;;;;;;;;;;10276396;28;20238;-70
2021/04/17 15:34:48;;;;;;;14.70;9.07;;;;;;;;;;10275716;28;20303;-68
2021/04/17 15:39:49;;;;;;;13.70;9.13;;;;;;;;;;10281543;28;20705;-71
2021/04/17 15:44:51;;;;;;;13.03;8.97;;;;;;;;;;10278490;28;20211;-69
2021/04/17 15:49:53;;;;;;;14.50;9.63;;;;;;;;;;10285463;28;20230;-68
2021/04/17 15:54:55;;;;;;;14.70;8.87;;;;;;;;;;10280596;28;20597;-69
2021/04/17 16:16:06;;;;;;;12.40;8.67;;;;;;;;;;10264419;28;20441;-68
2021/04/17 16:21:09;;;;;;;13.80;9.60;;;;;;;;;;10278108;28;20266;-69
2021/04/17 16:26:10;;;;;;;14.23;9.60;;;;;;;;;;10270906;28;20282;-69
2021/04/17 16:31:12;;;;;;;12.93;9.43;;;;;;;;;;10282878;28;20216;-68
2021/04/17 16:36:14;;;;;;;13.53;9.83;;;;;;;;;;10275556;28;20434;-68
2021/04/17 16:41:16;;;;;;;15.10;9.73;;;;;;;;;;10270609;28;20595;-68
2021/04/17 16:46:17;;;;;;;14.23;10.87;;;;;;;;;;10275949;28;20282;-69
2021/04/17 16:51:20;;;;;;;14.00;10.33;;;;;;;;;;10267270;28;20862;-68
2021/04/17 16:56:22;;;;;;;15.47;10.40;;;;;;;;;;10271875;28;20203;-69
2021/04/17 17:01:24;;;;;;;15.97;10.40;;;;;;;;;;10271120;28;20225;-69
2021/04/17 17:06:27;;;;;;;14.03;10.00;;;;;;;;;;10271496;28;20207;-68
2021/04/17 17:11:28;;;;;;;14.87;10.33;;;;;;;;;;10279215;28;20220;-68
2021/04/17 17:16:30;;;;;;;14.23;10.40;;;;;;;;;;10277300;28;20676;-68
2021/04/17 17:21:32;;;;;;;16.00;10.80;;;;;;;;;;10283256;28;20215;-67
2021/04/17 17:26:34;;;;;;;13.90;10.17;;;;;;;;;;10278243;28;20211;-68
2021/04/17 17:31:36;;;;;;;16.60;11.07;;;;;;;;;;10277435;28;20228;-68
2021/04/17 17:36:40;;;;;;;15.07;10.53;;;;;;;;;;10272441;28;20199;-69
2021/04/17 17:41:42;;;;;;;13.57;10.10;;;;;;;;;;10277514;28;20216;-69
2021/04/17 17:46:44;;;;;;;13.90;10.37;;;;;;;;;;10279523;28;20196;-70
2021/04/17 17:51:49;;;;;;;15.27;10.57;;;;;;;;;;10268404;28;20708;-70
2021/04/17 17:56:50;;;;;;;14.83;10.30;;;;;;;;;;10277079;28;20728;-69
2021/04/17 18:01:52;;;;;;;15.27;10.60;;;;;;;;;;10277160;28;20548;-69
2021/04/17 18:06:56;;;;;;;17.03;11.30;;;;;;;;;;10283295;28;20679;-70
2021/04/17 18:11:57;;;;;;;15.20;10.80;;;;;;;;;;10275960;28;20615;-71
2021/04/17 18:16:59;;;;;;;15.23;10.33;;;;;;;;;;10282879;28;20200;-68
2021/04/17 18:22:02;;;;;;;15.23;10.17;;;;;;;;;;10276587;28;20220;-68
2021/04/17 18:27:04;;;;;;;15.97;10.37;;;;;;;;;;10276972;28;20206;-68
2021/04/17 18:32:09;;;;;;;14.50;10.23;;;;;;;;;;10281852;28;20235;-69
2021/04/17 18:37:13;;;;;;;16.33;10.97;;;;;;;;;;10273365;28;20662;-69
2021/04/17 18:42:15;;;;;;;15.57;11.03;;;;;;;;;;10280653;28;20224;-68
2021/04/17 18:47:16;;;;;;;14.53;10.27;;;;;;;;;;10279388;28;20247;-68
2021/04/17 18:52:19;;;;;;;14.70;10.60;;;;;;;;;;10278328;28;20220;-69
2021/04/17 18:57:20;;;;;;;15.10;10.80;;;;;;;;;;10278127;28;20282;-68
2021/04/17 19:02:22;;;;;;;13.83;9.90;;;;;;;;;;10282042;28;20208;-68
2021/04/17 19:07:25;;;;;;;13.37;9.00;;;;;;;;;;10276933;28;20204;-70
2021/04/17 19:12:26;;;;;;;13.00;7.53;;;;;;;;;;10276191;28;20314;-68
2021/04/17 19:17:28;;;;;;;11.93;7.47;;;;;;;;;;10288081;28;20200;-70
2021/04/17 19:22:31;;;;;;;13.03;7.70;;;;;;;;;;10291285;28;20220;-69
2021/04/17 19:27:32;;;;;;;10.70;6.80;;;;;;;;;;10281870;28;20687;-68
2021/04/17 19:32:34;;;;;;;11.00;6.77;;;;;;;;;;10287167;28;20639;-67
2021/04/17 19:37:37;;;;;;;11.43;6.93;;;;;;;;;;10279730;28;20199;-68
2021/04/17 19:42:39;;;;;;;11.00;7.43;;;;;;;;;;10284193;28;20212;-68
2021/04/17 19:47:40;;;;;;;10.23;6.77;;;;;;;;;;10273011;28;21016;-68
2021/04/17 19:52:43;;;;;;;11.43;6.73;;;;;;;;;;10268359;28;20222;-71
2021/04/17 19:57:45;;;;;;;10.13;6.57;;;;;;;;;;10272035;28;20218;-70
2021/04/17 20:02:47;;;;;;;11.73;6.57;;;;;;;;;;10282756;28;20702;-69
2021/04/17 20:07:49;;;;;;;10.10;6.80;;;;;;;;;;10263956;28;20528;-70
2021/04/17 20:12:51;;;;;;;9.97;6.50;;;;;;;;;;10263642;28;20224;-70
2021/04/17 20:17:52;;;;;;;10.70;6.90;;;;;;;;;;10268983;28;20203;-70
2021/04/17 20:22:55;;;;;;;10.03;6.50;;;;;;;;;;10270505;28;20227;-72
2021/04/17 20:27:57;;;;;;;10.67;6.90;;;;;;;;;;10268390;28;20838;-70
2021/04/17 20:32:58;;;;;;;10.77;7.03;;;;;;;;;;10264587;28;20661;-70
2021/04/17 20:38:01;;;;;;;10.60;6.93;;;;;;;;;;10257359;28;20686;-70
2021/04/17 20:43:02;;;;;;;12.63;7.17;;;;;;;;;;10268064;28;20203;-69
2021/04/17 20:48:04;;;;;;;11.63;6.97;;;;;;;;;;10268392;28;20191;-70
2021/04/17 20:53:07;;;;;;;10.30;6.90;;;;;;;;;;10281919;28;20216;-71
2021/04/17 20:58:08;;;;;;;10.57;7.10;;;;;;;;;;10277494;28;20219;-69
2021/04/17 21:03:10;;;;;;;10.37;6.87;;;;;;;;;;10284032;28;20683;-73
2021/04/17 21:08:13;;;;;;;11.63;6.83;;;;;;;;;;10282102;28;20408;-70
2021/04/17 21:13:15;;;;;;;10.33;7.00;;;;;;;;;;10278360;28;20262;-70
2021/04/17 21:18:17;;;;;;;10.23;6.80;;;;;;;;;;10278223;28;20284;-69
2021/04/17 21:23:19;;;;;;;10.77;6.70;;;;;;;;;;10283239;28;20215;-69
2021/04/17 21:28:21;;;;;;;10.93;7.10;;;;;;;;;;10272845;28;20220;-70
2021/04/17 21:33:23;;;;;;;11.60;7.17;;;;;;;;;;10282169;28;20236;-68
2021/04/17 21:38:26;;;;;;;10.73;6.80;;;;;;;;;;10278594;28;20216;-70
2021/04/17 21:43:28;;;;;;;12.27;7.10;;;;;;;;;;10279630;28;20246;-71
2021/04/17 21:48:29;;;;;;;9.40;6.40;;;;;;;;;;10278877;28;20314;-69
2021/04/17 21:53:32;;;;;;;10.57;7.43;;;;;;;;;;10282681;28;20506;-70
2021/04/17 21:58:33;;;;;;;11.43;7.17;;;;;;;;;;10278261;28;20220;-70
2021/04/17 22:03:35;;;;;;;11.20;6.87;;;;;;;;;;10282100;28;20327;-70
2021/04/17 22:08:41;;;;;;;12.60;7.47;;;;;;;;;;10280962;28;20219;-69
2021/04/17 22:13:42;;;;;;;10.97;7.17;;;;;;;;;;10274822;28;20268;-69
2021/04/17 22:18:46;;;;;;;10.10;6.53;;;;;;;;;;10280038;28;20216;-69
2021/04/17 22:23:49;;;;;;;11.07;7.13;;;;;;;;;;10278761;28;20202;-69
2021/04/17 22:28:50;;;;;;;11.23;7.60;;;;;;;;;;10279920;28;20298;-68
2021/04/17 22:33:52;;;;;;;11.13;7.47;;;;;;;;;;10281065;28;20203;-69
2021/04/17 22:38:54;;;;;;;11.60;7.67;;;;;;;;;;10279915;28;20211;-69
2021/04/17 22:43:56;;;;;;;11.47;7.73;;;;;;;;;;10280506;28;20290;-68
2021/04/17 22:48:58;;;;;;;12.83;8.33;;;;;;;;;;10276786;28;20608;-68
2021/04/17 22:54:00;;;;;;;12.27;7.73;;;;;;;;;;10271430;28;20684;-67
2021/04/17 22:59:01;;;;;;;13.23;8.43;;;;;;;;;;10274128;28;20303;-68
2021/04/17 23:04:03;;;;;;;11.98;9.25;;;;;;;;;;10270206;28;20458;-68
2021/04/17 23:09:06;;;;;;;11.53;7.83;;;;;;;;;;10272739;28;20243;-68
2021/04/17 23:14:07;;;;;;;12.10;9.40;;;;;;;;;;10278885;28;20485;-68
2021/04/17 23:19:09;;;;;;;12.23;8.53;;;;;;;;;;10277135;28;20295;-68
2021/04/17 23:24:11;;;;;;;12.40;8.40;;;;;;;;;;10279535;28;20286;-68
2021/04/17 23:29:13;;;;;;;13.03;8.20;;;;;;;;;;10269944;28;20255;-69
2021/04/17 23:34:15;;;;;;;14.63;8.97;;;;;;;;;;10277217;28;20235;-70
2021/04/17 23:39:17;;;;;;;13.67;8.90;;;;;;;;;;10274921;28;20225;-68
2021/04/17 23:44:19;;;;;;;13.10;8.70;;;;;;;;;;10278392;28;20226;-68
2021/04/17 23:49:21;;;;;;;13.93;8.87;;;;;;;;;;10272219;28;20278;-68
2021/04/17 23:54:24;;;;;;;15.03;9.27;;;;;;;;;;10282606;28;20561;-69
2021/04/17 23:59:25;;;;;;;13.73;9.03;;;;;;;;;;10285725;28;20254;-68
